createdAt,value
2023-02-19T00:01:46.437Z,4.10
2023-02-19T00:04:50.861Z,3.75
2023-02-19T00:07:55.096Z,3.60
2023-02-19T00:11:11.113Z,3.60
2023-02-19T00:14:18.613Z,3.45
2023-02-19T00:17:22.999Z,4.03
2023-02-19T00:20:27.200Z,3.90
2023-02-19T00:23:31.845Z,3.88
2023-02-19T00:26:38.567Z,3.92
2023-02-19T00:29:42.330Z,3.63
2023-02-19T00:32:50.964Z,3.28
2023-02-19T00:35:55.350Z,3.20
2023-02-19T00:39:00.044Z,3.53
2023-02-19T00:42:04.262Z,3.75
2023-02-19T00:45:08.826Z,3.85
2023-02-19T00:48:12.773Z,4.32
2023-02-19T00:51:16.941Z,4.40
2023-02-19T00:54:22.616Z,4.50
2023-02-19T00:57:26.736Z,4.50
2023-02-19T01:00:30.934Z,4.55
2023-02-19T01:03:36.473Z,5.13
2023-02-19T01:06:41.235Z,4.85
2023-02-19T01:09:45.139Z,5.30
2023-02-19T01:12:49.566Z,5.03
2023-02-19T01:15:54.479Z,4.82
2023-02-19T01:18:59.178Z,5.15
2023-02-19T01:22:02.751Z,4.85
2023-02-19T01:25:06.961Z,4.82
2023-02-19T01:28:11.378Z,5.00
2023-02-19T01:31:18.907Z,5.00
2023-02-19T01:34:23.329Z,4.75
2023-02-19T01:37:27.587Z,4.40
2023-02-19T01:40:31.351Z,4.68
2023-02-19T01:43:57.532Z,4.60
2023-02-19T01:47:01.508Z,4.90
2023-02-19T01:50:05.822Z,4.78
2023-02-19T01:53:16.543Z,4.90
2023-02-19T01:56:21.549Z,4.50
2023-02-19T01:59:25.992Z,4.85
2023-02-19T02:02:30.206Z,4.57
2023-02-19T02:05:53.536Z,4.53
2023-02-19T02:09:17.815Z,4.15
2023-02-19T02:12:22.106Z,3.83
2023-02-19T02:15:45.609Z,3.90
2023-02-19T02:22:29.024Z,2.88
2023-02-19T02:25:51.474Z,2.70
2023-02-19T02:29:25.519Z,2.33
2023-02-19T02:35:49.165Z,2.17
2023-02-19T02:38:54.247Z,2.20
2023-02-19T02:42:29.569Z,2.08
2023-02-19T02:45:37.437Z,1.90
2023-02-19T02:48:53.909Z,1.65
2023-02-19T02:51:59.743Z,1.50
2023-02-19T02:55:09.691Z,1.50
2023-02-19T02:58:14.558Z,1.27
2023-02-19T03:01:48.673Z,1.20
2023-02-19T03:05:41.805Z,1.17
2023-02-19T03:08:56.295Z,1.23
2023-02-19T03:12:22.737Z,1.13
2023-02-19T03:15:51.536Z,0.90
2023-02-19T03:19:19.108Z,0.90
2023-02-19T03:22:27.920Z,0.90
2023-02-19T03:25:52.711Z,0.85
2023-02-19T03:29:19.236Z,0.70
2023-02-19T03:32:46.412Z,0.60
2023-02-19T03:35:58.384Z,0.70
2023-02-19T03:39:08.335Z,1.00
2023-02-19T03:42:21.156Z,0.90
2023-02-19T03:45:48.279Z,0.80
2023-02-19T03:48:58.408Z,0.75
2023-02-19T03:52:12.289Z,0.68
2023-02-19T03:55:44.789Z,0.95
2023-02-19T03:58:51.616Z,1.08
2023-02-19T04:02:20.034Z,1.33
2023-02-19T04:05:28.452Z,1.45
2023-02-19T04:08:35.455Z,1.70
2023-02-19T04:11:40.087Z,1.55
2023-02-19T04:15:04.280Z,3.28
2023-02-19T04:18:14.434Z,2.20
2023-02-19T04:21:20.513Z,1.80
2023-02-19T04:24:47.661Z,2.30
2023-02-19T04:27:52.085Z,2.40
2023-02-19T04:30:56.084Z,2.40
2023-02-19T04:34:00.635Z,1.70
2023-02-19T04:37:04.975Z,1.65
2023-02-19T04:40:09.862Z,1.40
2023-02-19T04:43:13.836Z,1.40
2023-02-19T04:46:17.905Z,0.98
2023-02-19T04:49:21.871Z,0.50
2023-02-19T04:52:25.940Z,0.43
2023-02-19T04:55:30.096Z,0.30
2023-02-19T04:58:34.591Z,0.40
2023-02-19T05:01:39.215Z,0.20
2023-02-19T05:04:43.016Z,0.13
2023-02-19T05:07:47.242Z,0.22
2023-02-19T05:10:51.432Z,0.45
2023-02-19T05:13:56.256Z,0.40
2023-02-19T05:17:00.490Z,0.50
2023-02-19T05:20:04.585Z,0.80
2023-02-19T05:23:08.424Z,1.10
2023-02-19T05:26:18.369Z,1.20
2023-02-19T05:29:22.114Z,1.25
2023-02-19T05:32:26.153Z,1.42
2023-02-19T05:35:30.469Z,1.30
2023-02-19T05:38:34.454Z,1.48
2023-02-19T05:41:38.964Z,1.30
2023-02-19T05:44:43.458Z,1.30
2023-02-19T05:47:47.597Z,1.30
2023-02-19T05:50:51.853Z,1.25
2023-02-19T05:53:57.066Z,1.35
2023-02-19T05:57:01.185Z,1.50
2023-02-19T06:00:05.770Z,1.38
2023-02-19T06:03:09.767Z,1.55
2023-02-19T06:06:15.620Z,1.60
2023-02-19T06:09:19.838Z,1.50
2023-02-19T06:12:23.867Z,1.42
2023-02-19T06:15:28.087Z,1.40
2023-02-19T06:18:32.449Z,1.40
2023-02-19T06:21:36.847Z,1.10
2023-02-19T06:24:41.129Z,1.30
2023-02-19T06:27:45.231Z,1.30
2023-02-19T06:30:51.520Z,1.40
2023-02-19T06:33:55.645Z,1.30
2023-02-19T06:37:00.232Z,1.60
2023-02-19T06:40:04.653Z,1.80
2023-02-19T06:43:08.712Z,1.70
2023-02-19T06:46:13.423Z,1.48
2023-02-19T06:49:18.133Z,1.70
2023-02-19T06:52:21.902Z,1.60
2023-02-19T06:55:26.060Z,1.50
2023-02-19T06:58:30.526Z,1.40
2023-02-19T07:01:36.038Z,1.40
2023-02-19T07:04:40.341Z,1.33
2023-02-19T07:07:46.069Z,1.10
2023-02-19T07:10:58.171Z,1.27
2023-02-19T07:14:04.911Z,1.45
2023-02-19T07:17:08.925Z,1.60
2023-02-19T07:20:13.757Z,1.50
2023-02-19T07:23:17.992Z,1.50
2023-02-19T07:26:22.818Z,1.60
2023-02-19T07:29:27.071Z,1.63
2023-02-19T07:32:31.379Z,1.63
2023-02-19T07:35:35.654Z,1.63
2023-02-19T07:38:39.990Z,1.70
2023-02-19T07:41:43.902Z,1.90
2023-02-19T07:44:48.105Z,1.60
2023-02-19T07:47:52.306Z,1.70
2023-02-19T07:50:58.536Z,1.80
2023-02-19T07:54:02.747Z,1.95
2023-02-19T07:57:06.713Z,2.30
2023-02-19T08:00:11.320Z,2.22
2023-02-19T08:03:15.673Z,2.47
2023-02-19T08:06:19.710Z,2.20
2023-02-19T08:09:23.861Z,2.00
2023-02-19T08:12:46.916Z,1.98
2023-02-19T08:16:07.549Z,1.60
2023-02-19T08:19:21.871Z,2.08
2023-02-19T08:22:25.905Z,2.83
2023-02-19T08:25:30.442Z,2.10
2023-02-19T08:28:34.320Z,1.98
2023-02-19T08:31:38.771Z,2.20
2023-02-19T08:34:42.897Z,1.70
2023-02-19T08:37:47.028Z,1.45
2023-02-19T08:40:50.947Z,1.90
2023-02-19T08:43:55.164Z,1.60
2023-02-19T08:46:59.505Z,1.40
2023-02-19T08:50:05.538Z,1.35
2023-02-19T08:53:09.538Z,1.02
2023-02-19T08:56:17.654Z,1.02
2023-02-19T08:59:21.311Z,1.00
2023-02-19T09:02:25.561Z,1.55
2023-02-19T09:05:30.068Z,0.95
2023-02-19T09:08:34.335Z,1.67
2023-02-19T09:11:39.565Z,1.30
2023-02-19T09:14:43.336Z,1.30
2023-02-19T09:17:52.644Z,1.10
2023-02-19T09:21:01.099Z,1.25
2023-02-19T09:24:05.146Z,1.60
2023-02-19T09:27:10.524Z,1.67
2023-02-19T09:30:14.673Z,1.33
2023-02-19T09:33:18.828Z,1.70
2023-02-19T09:36:22.769Z,1.30
2023-02-19T09:39:26.781Z,1.50
2023-02-19T09:42:32.669Z,1.30
2023-02-19T09:45:38.116Z,1.50
2023-02-19T09:48:42.293Z,1.50
2023-02-19T09:51:55.171Z,1.40
2023-02-19T09:55:04.157Z,1.30
2023-02-19T09:58:27.141Z,1.27
2023-02-19T10:01:37.657Z,0.90
2023-02-19T10:04:43.669Z,1.00
2023-02-19T10:07:50.931Z,1.27
2023-02-19T10:10:54.948Z,1.33
2023-02-19T10:14:09.419Z,1.48
2023-02-19T10:17:23.650Z,1.50
2023-02-19T10:20:28.242Z,1.60
2023-02-19T10:23:32.736Z,1.60
2023-02-19T10:26:36.856Z,1.20
2023-02-19T10:29:43.677Z,1.20
2023-02-19T10:33:01.570Z,1.10
2023-02-19T10:36:07.997Z,1.02
2023-02-19T10:39:42.228Z,1.10
2023-02-19T10:42:53.256Z,1.30
2023-02-19T10:45:59.539Z,1.25
2023-02-19T10:49:30.710Z,1.20
2023-02-19T10:52:36.611Z,1.30
2023-02-19T10:55:41.242Z,1.50
2023-02-19T10:58:46.943Z,1.52
2023-02-19T11:01:58.205Z,1.70
2023-02-19T11:05:18.115Z,1.30
2023-02-19T11:08:23.807Z,1.70
2023-02-19T11:11:34.656Z,1.77
2023-02-19T11:14:43.046Z,1.52
2023-02-19T11:17:55.781Z,1.40
2023-02-19T11:21:02.491Z,2.00
2023-02-19T11:24:06.766Z,1.05
2023-02-19T11:27:19.739Z,1.58
2023-02-19T11:30:29.986Z,1.27
2023-02-19T11:33:33.979Z,1.20
2023-02-19T11:36:38.746Z,1.45
2023-02-19T11:39:45.183Z,1.48
2023-02-19T11:43:06.034Z,1.80
2023-02-19T11:46:30.429Z,1.60
2023-02-19T11:49:44.618Z,1.83
2023-02-19T11:53:03.897Z,1.50
2023-02-19T11:56:08.224Z,1.55
2023-02-19T11:59:22.122Z,1.85
2023-02-19T12:02:30.284Z,1.85
2023-02-19T12:06:05.302Z,2.03
2023-02-19T12:09:23.855Z,1.70
2023-02-19T12:12:48.870Z,1.88
2023-02-19T12:16:06.693Z,1.60
2023-02-19T12:19:39.381Z,1.70
2023-02-19T12:23:12.899Z,1.80
2023-02-19T12:26:27.597Z,1.95
2023-02-19T12:30:09.404Z,1.40
2023-02-19T12:33:35.741Z,1.40
2023-02-19T12:36:52.162Z,1.25
2023-02-19T12:40:14.789Z,1.40
2023-02-19T12:43:21.205Z,1.30
2023-02-19T12:46:38.379Z,1.25
2023-02-19T12:49:48.536Z,1.35
2023-02-19T12:52:59.969Z,1.30
2023-02-19T12:56:09.423Z,1.40
2023-02-19T12:59:24.269Z,1.15
2023-02-19T13:02:50.543Z,1.20
2023-02-19T13:06:18.316Z,1.35
2023-02-19T13:09:32.262Z,1.30
2023-02-19T13:12:43.369Z,1.02
2023-02-19T13:15:52.551Z,2.03
2023-02-19T13:19:00.426Z,0.90
2023-02-19T13:22:58.797Z,1.00
2023-02-19T13:26:14.998Z,1.25
2023-02-19T13:30:16.613Z,1.15
2023-02-19T13:33:48.201Z,1.20
2023-02-19T13:36:54.278Z,0.88
2023-02-19T13:40:04.704Z,1.10
2023-02-19T13:43:23.012Z,1.00
2023-02-19T13:46:36.701Z,1.25
2023-02-19T13:49:42.058Z,1.40
2023-02-19T13:52:46.180Z,1.35
2023-02-19T13:55:52.960Z,0.98
2023-02-19T13:59:12.839Z,1.10
2023-02-19T14:02:22.805Z,1.08
2023-02-19T14:06:00.339Z,1.27
2023-02-19T14:09:04.401Z,1.20
2023-02-19T14:12:11.826Z,1.45
2023-02-19T14:15:43.580Z,1.10
2023-02-19T14:18:50.344Z,1.33
2023-02-19T14:21:54.583Z,1.25
2023-02-19T14:24:59.026Z,1.30
2023-02-19T14:28:15.591Z,1.08
2023-02-19T14:31:26.903Z,1.42
2023-02-19T14:34:32.296Z,1.40
2023-02-19T14:37:36.726Z,1.67
2023-02-19T14:40:42.172Z,1.80
2023-02-19T14:43:50.493Z,1.85
2023-02-19T14:47:19.667Z,1.25
2023-02-19T14:50:30.466Z,1.20
2023-02-19T14:53:41.653Z,1.17
2023-02-19T14:56:50.910Z,1.40
2023-02-19T14:59:59.251Z,1.30
2023-02-19T15:03:04.867Z,1.20
2023-02-19T15:06:14.065Z,1.45
2023-02-19T15:09:18.534Z,0.93
2023-02-19T15:12:28.878Z,0.95
2023-02-19T15:15:37.637Z,0.80
2023-02-19T15:18:46.243Z,1.10
2023-02-19T15:21:50.751Z,1.20
2023-02-19T15:24:55.471Z,1.05
2023-02-19T15:28:19.140Z,0.88
2023-02-19T15:31:23.529Z,1.00
2023-02-19T15:34:30.423Z,0.98
2023-02-19T15:37:35.810Z,0.73
2023-02-19T15:40:44.639Z,0.98
2023-02-19T15:43:55.017Z,1.17
2023-02-19T15:47:06.085Z,1.60
2023-02-19T15:50:14.809Z,0.90
2023-02-19T15:53:29.747Z,1.00
2023-02-19T15:56:36.696Z,1.10
2023-02-19T15:59:50.267Z,1.15
2023-02-19T16:02:55.015Z,1.25
2023-02-19T16:06:11.392Z,1.13
2023-02-19T16:09:21.870Z,1.42
2023-02-19T16:12:28.118Z,1.20
2023-02-19T16:15:33.130Z,1.10
2023-02-19T16:18:37.296Z,1.20
2023-02-19T16:21:43.783Z,1.33
2023-02-19T16:24:55.071Z,1.30
2023-02-19T16:27:59.024Z,1.40
2023-02-19T16:31:09.538Z,1.60
2023-02-19T16:34:19.132Z,1.25
2023-02-19T16:37:37.968Z,1.60
2023-02-19T16:40:45.240Z,1.60
2023-02-19T16:43:49.258Z,1.75
2023-02-19T16:46:57.991Z,1.30
2023-02-19T16:50:04.862Z,1.83
2023-02-19T16:53:25.148Z,1.08
2023-02-19T16:56:29.503Z,1.55
2023-02-19T16:59:33.679Z,1.48
2023-02-19T17:02:37.988Z,1.10
2023-02-19T17:05:42.687Z,1.20
2023-02-19T17:08:46.942Z,1.30
2023-02-19T17:11:51.089Z,1.10
2023-02-19T17:14:55.174Z,1.38
2023-02-19T17:17:59.486Z,1.20
2023-02-19T17:21:20.059Z,1.48
2023-02-19T17:24:24.995Z,1.40
2023-02-19T17:27:29.206Z,1.70
2023-02-19T17:30:33.811Z,2.05
2023-02-19T17:33:38.485Z,4.38
2023-02-19T17:36:44.896Z,2.00
2023-02-19T17:39:49.413Z,1.58
2023-02-19T17:42:53.611Z,1.30
2023-02-19T17:45:57.960Z,1.50
2023-02-19T17:49:01.964Z,1.73
2023-02-19T17:52:06.831Z,1.88
2023-02-19T17:55:18.312Z,5.00
2023-02-19T17:58:22.685Z,2.40
2023-02-19T18:01:26.774Z,2.10
2023-02-19T18:04:31.229Z,2.30
2023-02-19T18:07:36.086Z,2.30
2023-02-19T18:10:40.143Z,5.07
2023-02-19T18:13:44.466Z,5.15
2023-02-19T18:16:50.427Z,5.38
2023-02-19T18:19:55.109Z,5.05
2023-02-19T18:22:59.405Z,5.38
2023-02-19T18:26:06.445Z,3.20
2023-02-19T18:29:12.062Z,3.20
2023-02-19T18:32:15.811Z,3.58
2023-02-19T18:35:21.405Z,3.33
2023-02-19T18:38:25.320Z,3.95
2023-02-19T18:41:29.649Z,3.65
2023-02-19T18:44:33.956Z,4.05
2023-02-19T18:47:38.216Z,4.25
2023-02-19T18:50:42.384Z,4.10
2023-02-19T18:53:46.651Z,4.20
2023-02-19T18:56:51.202Z,4.47
2023-02-19T18:59:55.482Z,4.45
2023-02-19T19:02:59.965Z,4.57
2023-02-19T19:06:04.080Z,4.10
2023-02-19T19:09:08.584Z,4.20
2023-02-19T19:12:13.385Z,4.85
2023-02-19T19:15:18.724Z,5.10
2023-02-19T19:18:24.921Z,5.25
2023-02-19T19:21:29.082Z,5.07
2023-02-19T19:24:33.394Z,4.80
2023-02-19T19:27:37.748Z,5.20
2023-02-19T19:30:42.318Z,4.53
2023-02-19T19:33:47.174Z,4.60
2023-02-19T19:36:51.271Z,5.32
2023-02-19T19:39:56.020Z,5.30
2023-02-19T19:42:59.948Z,5.63
2023-02-19T19:46:04.392Z,5.30
2023-02-19T19:49:08.287Z,6.03
2023-02-19T19:52:12.521Z,5.95
2023-02-19T19:55:16.867Z,5.78
2023-02-19T19:58:24.578Z,5.82
2023-02-19T20:01:28.959Z,5.65
2023-02-19T20:04:33.281Z,4.85
2023-02-19T20:07:37.696Z,4.75
2023-02-19T20:10:42.633Z,5.03
2023-02-19T20:13:47.458Z,4.35
2023-02-19T20:16:52.114Z,5.50
2023-02-19T20:19:56.096Z,4.57
2023-02-19T20:23:00.503Z,5.47
2023-02-19T20:26:05.409Z,4.57
2023-02-19T20:29:10.318Z,4.38
2023-02-19T20:32:18.489Z,4.47
2023-02-19T20:35:27.957Z,4.05
2023-02-19T20:38:32.116Z,4.47
2023-02-19T20:41:36.324Z,4.40
2023-02-19T20:44:42.609Z,4.50
2023-02-19T20:47:47.880Z,4.22
2023-02-19T20:50:53.376Z,4.20
2023-02-19T20:53:57.353Z,4.00
2023-02-19T20:57:04.239Z,4.13
2023-02-19T21:00:08.778Z,4.10
2023-02-19T21:03:13.048Z,4.28
2023-02-19T21:06:17.333Z,4.15
2023-02-19T21:09:23.075Z,4.15
2023-02-19T21:12:27.020Z,4.32
2023-02-19T21:15:31.028Z,4.60
2023-02-19T21:18:34.788Z,3.90
2023-02-19T21:21:40.294Z,4.50
2023-02-19T21:24:44.769Z,3.88
2023-02-19T21:27:48.781Z,3.53
2023-02-19T21:30:53.031Z,3.67
2023-02-19T21:33:57.079Z,3.50
2023-02-19T21:37:01.164Z,3.45
2023-02-19T21:40:06.516Z,3.17
2023-02-19T21:43:10.683Z,3.30
2023-02-19T21:46:18.840Z,3.30
2023-02-19T21:49:22.917Z,3.65
2023-02-19T21:52:27.094Z,3.47
2023-02-19T21:55:31.804Z,3.40
2023-02-19T21:58:36.399Z,3.75
2023-02-19T22:01:42.066Z,4.30
2023-02-19T22:04:46.818Z,4.30
2023-02-19T22:07:52.871Z,4.57
2023-02-19T22:10:56.774Z,4.25
2023-02-19T22:14:01.314Z,4.65
2023-02-19T22:17:05.665Z,4.75
2023-02-19T22:20:10.138Z,4.38
2023-02-19T22:23:14.124Z,4.40
2023-02-19T22:26:32.637Z,4.18
2023-02-19T22:29:36.926Z,4.47
2023-02-19T22:32:41.112Z,4.70
2023-02-19T22:35:44.608Z,4.60
2023-02-19T22:38:48.634Z,4.78
2023-02-19T22:41:53.695Z,4.70
2023-02-19T22:44:57.991Z,4.45
2023-02-19T22:48:02.349Z,4.80
2023-02-19T22:51:12.938Z,4.45
2023-02-19T22:54:17.229Z,4.43
2023-02-19T22:57:21.396Z,4.80
2023-02-19T23:00:25.588Z,4.75
2023-02-19T23:03:29.807Z,4.75
2023-02-19T23:06:35.526Z,4.60
2023-02-19T23:09:39.402Z,4.75
2023-02-19T23:12:43.706Z,4.28
2023-02-19T23:15:47.709Z,5.18
2023-02-19T23:18:51.887Z,4.90
2023-02-19T23:21:56.323Z,5.60
2023-02-19T23:25:00.940Z,4.32
2023-02-19T23:28:04.952Z,4.47
2023-02-19T23:31:09.887Z,4.53
2023-02-19T23:34:14.973Z,4.95
2023-02-19T23:37:18.978Z,4.55
2023-02-19T23:40:23.225Z,4.70
2023-02-19T23:43:27.307Z,5.10
2023-02-19T23:46:33.777Z,5.13
2023-02-19T23:49:37.966Z,5.00
2023-02-19T23:52:42.423Z,5.28
2023-02-19T23:55:46.676Z,5.70
2023-02-19T23:58:50.688Z,5.68
